Time;durP1;ratioP1;P1;durP2;ratioP2;P2;SDS_P1;SDS_P2;PMS_P1;PMS_P2;Temp;Humidity;BMP_temperature;BMP_pressure;BME280_temperature;BME280_humidity;BME280_pressure;Samples;Min_cycle;Max_cycle;Signal;HPM_P1;HPM_P2
2021/12/11 00:02:06;;;;;;;42.55;20.83;;;;;;;-1.02;100.00;100463.16;4995733;28;20045;-73
2021/12/11 00:04:35;;;;;;;42.13;21.23;;;;;;;-0.99;100.00;100462.66;4995007;28;20038;-72
2021/12/11 00:07:04;;;;;;;38.80;19.90;;;;;;;-0.99;100.00;100468.03;4976973;28;20546;-72
2021/12/11 00:09:40;;;;;;;39.00;20.50;;;;;;;-0.97;100.00;100465.91;4995502;28;20041;-72
2021/12/11 00:12:27;;;;;;;42.10;18.83;;;;;;;-0.96;100.00;100472.06;4995582;28;20045;-72
2021/12/11 00:14:57;;;;;;;35.30;19.98;;;;;;;-0.97;100.00;100475.78;4995271;28;20467;-72
2021/12/11 00:17:27;;;;;;;36.30;18.73;;;;;;;-0.95;100.00;100479.88;4996342;28;20361;-72
2021/12/11 00:19:53;;;;;;;39.78;20.02;;;;;;;-0.96;100.00;100483.59;4997097;28;20476;-72
2021/12/11 00:22:23;;;;;;;35.85;19.38;;;;;;;-0.99;100.00;100494.78;4996455;28;20038;-73
2021/12/11 00:24:49;;;;;;;36.70;18.25;;;;;;;-1.03;100.00;100496.28;4995969;28;20048;-72
2021/12/11 00:27:22;;;;;;;42.40;20.83;;;;;;;-1.16;100.00;100510.75;4996826;28;20049;-73
2021/12/11 00:29:50;;;;;;;45.95;22.80;;;;;;;-1.11;100.00;100518.03;4996115;28;20413;-73
2021/12/11 00:32:31;;;;;;;42.38;21.95;;;;;;;-0.99;100.00;100521.53;4996643;28;20206;-73
2021/12/11 00:35:16;;;;;;;38.17;21.60;;;;;;;-1.04;100.00;100524.09;4978304;28;20543;-72
2021/12/11 00:37:42;;;;;;;42.00;21.95;;;;;;;-0.93;100.00;100541.22;4996127;28;20046;-73
2021/12/11 00:40:15;;;;;;;40.45;20.92;;;;;;;-0.98;100.00;100541.09;4996221;28;20048;-72
2021/12/11 00:42:50;;;;;;;44.90;22.70;;;;;;;-0.86;100.00;100543.75;4995803;28;20469;-72
2021/12/11 00:45:24;;;;;;;41.55;21.92;;;;;;;-0.77;100.00;100543.13;4995544;28;20421;-73
2021/12/11 00:47:53;;;;;;;48.50;22.58;;;;;;;-0.87;100.00;100552.81;4977204;28;20377;-72
2021/12/11 00:50:25;;;;;;;41.85;21.27;;;;;;;-0.87;100.00;100555.47;4995797;28;20046;-73
2021/12/11 00:53:13;;;;;;;42.70;22.15;;;;;;;-1.04;100.00;100564.25;4977633;28;20122;-72
2021/12/11 00:55:45;;;;;;;34.70;19.77;;;;;;;-1.15;100.00;100565.06;4995861;28;20048;-72
2021/12/11 00:58:13;;;;;;;37.83;19.75;;;;;;;-1.21;100.00;100577.50;4996247;28;20192;-72
2021/12/11 01:00:51;;;;;;;34.80;18.58;;;;;;;-1.28;100.00;100567.94;4995870;28;20116;-72
2021/12/11 01:03:23;;;;;;;39.03;19.45;;;;;;;-1.31;100.00;100577.28;4976956;28;20538;-71
2021/12/11 01:05:53;;;;;;;36.58;21.25;;;;;;;-1.33;100.00;100591.94;4977664;28;20052;-73
2021/12/11 01:08:28;;;;;;;36.65;18.90;;;;;;;-1.41;100.00;100591.22;4958051;28;20058;-72
2021/12/11 01:11:09;;;;;;;37.97;19.73;;;;;;;-1.32;100.00;100596.22;4976367;28;20502;-73
2021/12/11 01:14:18;;;;;;;40.33;19.73;;;;;;;-1.33;100.00;100607.97;4975965;28;20380;-73
2021/12/11 01:16:50;;;;;;;47.80;22.60;;;;;;;-1.41;100.00;100615.28;4954986;28;20061;-73
2021/12/11 01:19:19;;;;;;;48.45;23.88;;;;;;;-1.43;100.00;100625.38;4991646;28;20077;-72
2021/12/11 01:21:56;;;;;;;49.25;22.88;;;;;;;-1.35;100.00;100628.78;4981028;28;20353;-73
2021/12/11 01:24:44;;;;;;;44.67;21.38;;;;;;;-1.33;100.00;100642.75;4998101;28;20061;-73
2021/12/11 01:27:16;;;;;;;51.05;24.00;;;;;;;-1.32;100.00;100647.84;4997137;28;20037;-73
2021/12/11 01:29:43;;;;;;;41.97;21.60;;;;;;;-1.30;100.00;100647.66;4998197;28;20048;-72
2021/12/11 01:32:09;;;;;;;37.88;21.23;;;;;;;-1.32;100.00;100657.75;4999288;28;20478;-73
2021/12/11 01:34:35;;;;;;;46.63;23.85;;;;;;;-1.32;100.00;100663.09;4998598;28;20112;-73
2021/12/11 01:37:02;;;;;;;54.38;24.45;;;;;;;-1.40;100.00;100669.56;4998960;28;20156;-73
2021/12/11 01:39:33;;;;;;;48.83;23.25;;;;;;;-1.26;100.00;100683.56;4999057;28;20326;-72
2021/12/11 01:42:00;;;;;;;48.80;24.02;;;;;;;-1.26;100.00;100673.69;4998760;28;20464;-72
2021/12/11 01:44:34;;;;;;;49.92;26.15;;;;;;;-1.29;100.00;100682.16;4979812;28;20984;-71
2021/12/11 01:47:31;;;;;;;48.20;23.40;;;;;;;-1.40;100.00;100689.16;4980765;28;20058;-72
2021/12/11 01:50:31;;;;;;;42.97;23.48;;;;;;;-1.33;100.00;100698.94;4998432;28;20046;-72
2021/12/11 01:53:05;;;;;;;53.53;24.40;;;;;;;-1.33;100.00;100694.38;4978280;28;20070;-72
2021/12/11 01:55:39;;;;;;;52.35;24.25;;;;;;;-1.31;100.00;100707.50;4964243;28;20420;-72
2021/12/11 01:58:09;;;;;;;51.00;24.83;;;;;;;-1.26;100.00;100710.31;4998144;28;20357;-73
2021/12/11 02:00:57;;;;;;;51.90;25.35;;;;;;;-1.24;100.00;100716.28;4998195;28;20129;-73
2021/12/11 02:03:26;;;;;;;59.05;27.27;;;;;;;-1.42;100.00;100717.97;4979906;28;20083;-72
2021/12/11 02:05:52;;;;;;;49.10;24.65;;;;;;;-1.21;100.00;100721.16;4997789;28;20044;-73
2021/12/11 02:08:29;;;;;;;52.42;25.10;;;;;;;-1.12;100.00;100727.81;4979285;28;20046;-73
2021/12/11 02:10:59;;;;;;;52.58;24.90;;;;;;;-1.35;100.00;100730.44;4978262;28;20049;-73
2021/12/11 02:14:00;;;;;;;58.08;24.10;;;;;;;-1.43;100.00;100737.72;4979107;28;20046;-75
2021/12/11 02:16:30;;;;;;;44.85;21.83;;;;;;;-1.43;100.00;100732.34;4970788;28;20599;-73
2021/12/11 02:19:04;;;;;;;43.85;23.38;;;;;;;-1.32;100.00;100740.66;4979615;28;20053;-73
2021/12/11 02:21:33;;;;;;;41.63;21.67;;;;;;;-1.40;100.00;100745.31;4980086;28;20038;-72
2021/12/11 02:24:06;;;;;;;43.10;22.65;;;;;;;-1.23;100.00;100740.13;4980146;28;20047;-73
2021/12/11 02:26:34;;;;;;;45.83;22.70;;;;;;;-1.16;100.00;100750.75;4980619;28;20381;-73
2021/12/11 02:29:08;;;;;;;43.75;23.17;;;;;;;-1.34;100.00;100746.22;4979819;28;20475;-73
2021/12/11 02:32:01;;;;;;;45.25;23.30;;;;;;;-1.18;100.00;100748.28;4980470;28;20053;-73
2021/12/11 02:34:32;;;;;;;46.78;22.58;;;;;;;-1.15;100.00;100757.72;4972964;28;20073;-73
2021/12/11 02:37:10;;;;;;;38.25;20.50;;;;;;;-1.37;100.00;100766.25;4982608;28;20053;-72
2021/12/11 02:39:45;;;;;;;44.38;21.73;;;;;;;-1.55;100.00;100776.97;4982966;28;20046;-73
2021/12/11 02:42:17;;;;;;;42.80;21.50;;;;;;;-1.51;100.00;100775.50;4979968;28;20061;-72
2021/12/11 02:44:49;;;;;;;42.25;22.33;;;;;;;-1.43;100.00;100782.38;4979343;28;20045;-73
2021/12/11 02:47:23;;;;;;;44.60;23.43;;;;;;;-1.43;100.00;100788.53;4980142;28;20038;-73
2021/12/11 02:50:00;;;;;;;45.90;22.70;;;;;;;-1.61;100.00;100794.72;4995946;28;20480;-72
2021/12/11 02:52:39;;;;;;;44.10;21.92;;;;;;;-1.53;100.00;100790.94;4998987;28;20050;-73
2021/12/11 02:55:23;;;;;;;40.28;21.15;;;;;;;-1.55;100.00;100793.00;4980864;28;20354;-73
2021/12/11 02:57:53;;;;;;;40.15;21.20;;;;;;;-1.50;100.00;100803.84;4999651;28;20120;-73
2021/12/11 03:00:32;;;;;;;42.90;21.35;;;;;;;-1.48;100.00;100807.13;4981936;28;20137;-73
2021/12/11 03:03:04;;;;;;;42.60;21.73;;;;;;;-1.58;100.00;100806.81;4982662;28;20052;-73
2021/12/11 03:05:50;;;;;;;44.35;21.95;;;;;;;-1.52;100.00;100803.25;5001108;28;20076;-73
2021/12/11 03:08:18;;;;;;;43.30;21.45;;;;;;;-1.56;100.00;100807.44;5001369;28;20234;-73
2021/12/11 03:10:51;;;;;;;47.03;21.85;;;;;;;-1.59;100.00;100813.22;5002075;28;20085;-72
2021/12/11 03:13:17;;;;;;;46.20;21.42;;;;;;;-1.69;100.00;100805.72;4985148;28;20068;-73
2021/12/11 03:15:42;;;;;;;45.55;22.17;;;;;;;-1.66;100.00;100815.16;5002787;28;20412;-72
2021/12/11 03:18:10;;;;;;;45.10;21.45;;;;;;;-1.65;100.00;100822.16;5002287;28;20077;-72
2021/12/11 03:20:37;;;;;;;41.90;21.05;;;;;;;-1.66;100.00;100820.50;5002623;28;20053;-73
2021/12/11 03:23:04;;;;;;;43.28;21.58;;;;;;;-1.69;100.00;100836.97;5004139;28;20158;-72
2021/12/11 03:25:30;;;;;;;48.47;22.83;;;;;;;-1.70;100.00;100835.34;5003292;28;20416;-72
2021/12/11 03:27:59;;;;;;;51.85;24.45;;;;;;;-1.72;100.00;100838.25;4987106;28;20068;-72
2021/12/11 03:30:37;;;;;;;41.30;21.70;;;;;;;-1.70;100.00;100838.84;5004620;28;20050;-72
2021/12/11 03:33:10;;;;;;;41.72;22.75;;;;;;;-1.71;100.00;100839.91;5001829;28;20038;-72
2021/12/11 03:35:37;;;;;;;51.90;22.98;;;;;;;-1.71;100.00;100839.09;5002815;28;20049;-72
2021/12/11 03:38:04;;;;;;;52.38;24.40;;;;;;;-1.76;100.00;100852.28;5003394;28;20041;-73
2021/12/11 03:40:30;;;;;;;51.03;23.63;;;;;;;-1.88;100.00;100850.34;5003044;28;20046;-73
2021/12/11 03:43:00;;;;;;;48.50;24.67;;;;;;;-1.97;100.00;100849.00;5002862;28;20046;-72
2021/12/11 03:45:30;;;;;;;48.90;22.30;;;;;;;-1.80;100.00;100841.22;4985709;28;20270;-73
2021/12/11 03:48:02;;;;;;;50.17;23.75;;;;;;;-1.78;100.00;100859.69;5003406;28;20049;-72
2021/12/11 03:50:29;;;;;;;43.67;21.13;;;;;;;-2.20;100.00;100859.50;5002561;28;20301;-73
2021/12/11 03:52:56;;;;;;;50.97;23.20;;;;;;;-2.26;100.00;100855.03;5002920;28;20041;-72
2021/12/11 03:55:28;;;;;;;46.28;22.38;;;;;;;-2.26;100.00;100865.72;4985198;28;20402;-72
2021/12/11 03:57:58;;;;;;;50.13;21.63;;;;;;;-2.24;100.00;100860.94;4984817;28;20050;-73
2021/12/11 04:00:28;;;;;;;43.63;21.95;;;;;;;-2.28;100.00;100865.91;4984759;28;20042;-72
2021/12/11 04:03:02;;;;;;;45.80;23.10;;;;;;;-2.38;100.00;100866.41;5002052;28;20052;-73
2021/12/11 04:05:28;;;;;;;48.55;21.17;;;;;;;-2.32;100.00;100865.53;5002674;28;20045;-72
2021/12/11 04:07:53;;;;;;;52.25;24.05;;;;;;;-2.21;100.00;100866.69;5002147;28;20057;-72
2021/12/11 04:10:20;;;;;;;43.83;22.23;;;;;;;-2.01;100.00;100871.03;5003014;28;20034;-72
2021/12/11 04:12:48;;;;;;;48.83;22.60;;;;;;;-2.02;100.00;100875.56;5003600;28;20046;-72
2021/12/11 04:15:15;;;;;;;51.78;23.58;;;;;;;-1.98;100.00;100870.59;5004612;28;20148;-72
2021/12/11 04:17:40;;;;;;;44.30;23.38;;;;;;;-2.04;100.00;100877.63;5005148;28;20037;-73
2021/12/11 04:20:14;;;;;;;52.00;23.45;;;;;;;-1.90;100.00;100884.47;5006376;28;20046;-73
2021/12/11 04:22:41;;;;;;;48.05;22.45;;;;;;;-2.01;100.00;100890.53;4987453;28;20053;-73
2021/12/11 04:25:09;;;;;;;41.10;21.08;;;;;;;-2.05;100.00;100892.03;5005919;28;20073;-73
2021/12/11 04:27:36;;;;;;;48.45;21.77;;;;;;;-2.08;100.00;100905.81;4987348;28;20073;-73
2021/12/11 04:30:08;;;;;;;43.33;21.73;;;;;;;-2.12;100.00;100907.31;5007362;28;20040;-73
2021/12/11 04:32:34;;;;;;;52.35;20.17;;;;;;;-1.97;100.00;100909.66;5007479;28;20033;-73
2021/12/11 04:35:04;;;;;;;43.97;20.88;;;;;;;-1.92;100.00;100902.63;5006533;28;20034;-73
2021/12/11 04:37:32;;;;;;;50.90;23.23;;;;;;;-2.09;100.00;100913.03;5006000;28;20127;-73
2021/12/11 04:40:07;;;;;;;49.50;22.67;;;;;;;-2.13;100.00;100911.00;4988467;28;20452;-72
2021/12/11 04:42:52;;;;;;;50.80;23.98;;;;;;;-2.26;100.00;100921.81;5007828;28;20374;-71
2021/12/11 04:45:33;;;;;;;47.25;23.23;;;;;;;-2.37;100.00;100940.16;5008150;28;20050;-73
2021/12/11 04:51:20;;;;;;;47.42;20.85;;;;;;;-2.17;100.00;100941.88;4944578;29;20047;-72
2021/12/11 04:54:06;;;;;;;45.05;23.05;;;;;;;-2.05;100.00;100948.13;4947017;28;20430;-72
2021/12/11 04:57:07;;;;;;;42.45;23.20;;;;;;;-2.12;100.00;100955.41;4990437;28;20061;-73
2021/12/11 05:00:20;;;;;;;39.45;22.95;;;;;;;-1.81;100.00;100959.88;5008981;28;20046;-72
2021/12/11 05:10:18;;;;;;;49.45;22.45;;;;;;;-1.75;100.00;100971.53;5004786;28;20450;-72
2021/12/11 05:12:47;;;;;;;40.78;22.20;;;;;;;-1.67;100.00;100968.59;5003597;28;20049;-72
2021/12/11 05:15:20;;;;;;;51.28;23.30;;;;;;;-1.83;100.00;100978.81;5002214;28;20049;-72
2021/12/11 05:17:47;;;;;;;42.65;21.50;;;;;;;-1.63;100.00;100977.81;4983731;28;20052;-72
2021/12/11 05:20:14;;;;;;;47.30;23.10;;;;;;;-1.70;100.00;100977.88;4983519;28;20064;-72
2021/12/11 05:22:40;;;;;;;47.95;22.92;;;;;;;-1.76;100.00;100986.75;4983398;28;20129;-72
2021/12/11 05:25:08;;;;;;;46.75;23.17;;;;;;;-1.65;100.00;100977.22;5000783;28;20144;-72
2021/12/11 05:27:34;;;;;;;50.38;24.17;;;;;;;-1.62;100.00;100982.13;4981991;28;20470;-72
2021/12/11 05:30:00;;;;;;;40.75;22.50;;;;;;;-1.63;100.00;100992.00;5000137;28;20045;-72
2021/12/11 05:32:26;;;;;;;41.60;22.95;;;;;;;-1.62;100.00;100992.81;4999406;28;20076;-72
2021/12/11 05:34:53;;;;;;;48.20;24.00;;;;;;;-1.63;100.00;100994.69;4999472;28;20061;-73
2021/12/11 05:37:20;;;;;;;51.63;24.83;;;;;;;-1.68;100.00;100999.06;4999214;28;20486;-73
2021/12/11 05:39:47;;;;;;;47.67;25.33;;;;;;;-1.51;100.00;101002.81;4999486;28;20272;-73
2021/12/11 05:42:13;;;;;;;53.25;25.55;;;;;;;-1.23;100.00;101001.50;4999238;28;20093;-73
2021/12/11 05:44:38;;;;;;;53.42;24.55;;;;;;;-1.20;100.00;101003.72;4981122;28;20525;-73
2021/12/11 05:47:05;;;;;;;52.22;25.70;;;;;;;-1.30;100.00;101003.44;4998140;28;20110;-73
2021/12/11 05:49:31;;;;;;;54.45;25.30;;;;;;;-1.40;100.00;101007.44;4985436;28;20042;-72
2021/12/11 05:51:58;;;;;;;52.42;24.27;;;;;;;-1.30;100.00;101012.28;4977608;28;20042;-73
2021/12/11 05:54:25;;;;;;;47.15;24.83;;;;;;;-1.13;100.00;101015.19;4978913;28;20563;-72
2021/12/11 05:56:55;;;;;;;49.17;24.92;;;;;;;-1.18;100.00;101021.22;4960884;28;20508;-73
2021/12/11 05:59:22;;;;;;;52.97;23.63;;;;;;;-1.14;100.00;101037.63;4978933;28;20726;-73
2021/12/11 06:01:59;;;;;;;43.22;22.60;;;;;;;-1.19;100.00;101038.31;4983308;28;20044;-73
2021/12/11 06:04:29;;;;;;;51.03;23.73;;;;;;;-1.16;100.00;101039.72;4979599;28;20096;-73
2021/12/11 06:06:55;;;;;;;53.58;28.35;;;;;;;-1.22;100.00;101040.59;4996941;28;20061;-73
2021/12/11 06:09:25;;;;;;;53.75;24.30;;;;;;;-1.14;100.00;101049.16;4997567;28;20414;-73
2021/12/11 06:11:53;;;;;;;61.08;27.05;;;;;;;-1.08;100.00;101036.75;4979661;28;20041;-72
2021/12/11 06:14:20;;;;;;;54.45;25.00;;;;;;;-1.11;100.00;101037.19;4998225;28;20072;-72
2021/12/11 06:16:48;;;;;;;54.85;27.17;;;;;;;-0.95;100.00;101047.31;4997930;28;20140;-72
2021/12/11 06:19:19;;;;;;;47.53;24.67;;;;;;;-0.91;100.00;101053.84;4997971;28;20046;-73
2021/12/11 06:21:44;;;;;;;51.90;26.17;;;;;;;-0.97;100.00;101054.75;4979293;28;20152;-72
2021/12/11 06:24:10;;;;;;;56.20;27.45;;;;;;;-0.78;100.00;101052.09;4997818;28;20050;-73
2021/12/11 06:26:35;;;;;;;50.10;25.38;;;;;;;-0.74;100.00;101062.13;4996318;28;20568;-73
2021/12/11 06:29:01;;;;;;;56.15;26.50;;;;;;;-0.59;100.00;101069.78;4998237;28;20224;-73
2021/12/11 06:31:27;;;;;;;63.90;27.10;;;;;;;-0.57;100.00;101070.38;4996382;28;20156;-74
2021/12/11 06:33:54;;;;;;;61.05;28.00;;;;;;;-0.58;100.00;101074.13;4995937;28;20498;-73
2021/12/11 06:36:21;;;;;;;52.47;26.42;;;;;;;-0.44;100.00;101076.63;4997529;28;20045;-72
2021/12/11 06:38:52;;;;;;;54.50;28.88;;;;;;;-0.37;100.00;101077.38;4997461;28;20056;-73
2021/12/11 06:41:23;;;;;;;59.47;28.35;;;;;;;-0.48;100.00;101090.47;4995765;28;20040;-73
2021/12/11 06:43:49;;;;;;;59.05;27.25;;;;;;;-0.44;100.00;101087.34;4998281;28;20049;-73
2021/12/11 06:46:16;;;;;;;55.25;27.08;;;;;;;-0.45;100.00;101089.19;4979520;28;20065;-73
2021/12/11 06:48:42;;;;;;;59.35;28.02;;;;;;;-0.34;100.00;101101.84;4997015;28;20038;-73
2021/12/11 06:51:07;;;;;;;60.50;28.13;;;;;;;-0.34;100.00;101104.53;4996742;28;20405;-73
2021/12/11 06:53:39;;;;;;;63.75;28.88;;;;;;;-0.19;100.00;101112.19;4979061;28;20037;-73
2021/12/11 06:56:07;;;;;;;51.25;27.05;;;;;;;-0.19;100.00;101114.84;4994781;28;20056;-73
2021/12/11 06:58:33;;;;;;;52.40;28.88;;;;;;;-0.19;100.00;101122.91;4997105;28;20034;-72
2021/12/11 07:00:59;;;;;;;74.43;30.98;;;;;;;-0.19;100.00;101127.44;4997574;28;20053;-73
2021/12/11 07:03:26;;;;;;;55.47;29.45;;;;;;;-0.08;100.00;101126.69;4978785;28;20125;-73
2021/12/11 07:05:52;;;;;;;60.25;30.27;;;;;;;0.13;100.00;101133.44;4997016;28;20045;-73
2021/12/11 07:08:18;;;;;;;55.72;29.67;;;;;;;0.25;100.00;101128.09;4977111;28;20554;-73
2021/12/11 07:10:44;;;;;;;61.92;30.90;;;;;;;0.24;100.00;101140.69;4958186;28;20646;-73
2021/12/11 07:13:12;;;;;;;65.57;31.20;;;;;;;0.26;100.00;101149.31;4974878;28;20136;-73
2021/12/11 07:15:37;;;;;;;63.78;33.33;;;;;;;0.34;100.00;101146.31;4958590;28;20038;-73
2021/12/11 07:18:04;;;;;;;63.38;32.85;;;;;;;0.32;100.00;101152.94;4974743;28;20732;-73
2021/12/11 07:20:30;;;;;;;63.97;30.33;;;;;;;0.38;100.00;101152.06;4976912;28;20148;-73
2021/12/11 07:22:57;;;;;;;65.00;30.35;;;;;;;0.47;100.00;101157.91;4977042;28;20050;-73
2021/12/11 07:25:34;;;;;;;66.40;30.95;;;;;;;0.34;100.00;101156.22;4975991;28;20523;-77
2021/12/11 07:28:03;;;;;;;67.97;31.45;;;;;;;0.48;100.00;101156.88;4976226;28;20487;-73
2021/12/11 07:30:29;;;;;;;72.80;33.58;;;;;;;0.47;100.00;101165.94;4974721;28;20049;-72
2021/12/11 07:32:56;;;;;;;76.60;33.15;;;;;;;0.53;100.00;101167.75;4976170;28;20034;-73
2021/12/11 07:35:22;;;;;;;69.22;33.30;;;;;;;0.69;100.00;101172.44;4974286;28;20046;-73
2021/12/11 07:37:50;;;;;;;65.03;31.55;;;;;;;0.77;100.00;101182.03;4976101;28;20042;-73
2021/12/11 07:40:21;;;;;;;66.82;31.77;;;;;;;0.59;100.00;101180.25;4976045;28;20152;-73
2021/12/11 07:42:47;;;;;;;69.32;32.63;;;;;;;0.63;100.00;101186.78;4976644;28;20047;-73
2021/12/11 07:45:13;;;;;;;77.28;33.90;;;;;;;0.71;100.00;101178.41;4976093;28;20110;-73
2021/12/11 07:47:39;;;;;;;73.78;33.67;;;;;;;0.84;100.00;101188.94;4969090;28;20490;-72
2021/12/11 07:50:06;;;;;;;67.10;32.20;;;;;;;0.79;100.00;101191.50;4993585;28;20121;-73
2021/12/11 07:52:31;;;;;;;69.80;34.10;;;;;;;0.93;100.00;101191.28;4991680;28;20053;-73
2021/12/11 07:54:56;;;;;;;69.15;33.30;;;;;;;0.94;100.00;101201.00;4993909;28;20037;-73
2021/12/11 07:57:22;;;;;;;68.53;31.95;;;;;;;0.93;100.00;101202.84;4976929;28;20478;-73
2021/12/11 07:59:48;;;;;;;84.13;34.80;;;;;;;0.85;100.00;101205.88;4993268;28;20045;-72
2021/12/11 08:02:13;;;;;;;78.40;35.63;;;;;;;0.79;100.00;101215.66;4989827;28;20068;-73
2021/12/11 08:04:39;;;;;;;87.95;37.67;;;;;;;0.87;100.00;101209.97;4992764;28;20821;-74
2021/12/11 08:07:04;;;;;;;78.20;35.50;;;;;;;0.93;100.00;101218.94;4979166;28;20061;-73
2021/12/11 08:09:30;;;;;;;83.80;37.17;;;;;;;0.99;100.00;101223.41;4980099;28;20275;-73
2021/12/11 08:11:56;;;;;;;75.55;35.88;;;;;;;0.94;100.00;101230.53;5012893;28;20046;-73
2021/12/11 08:14:22;;;;;;;78.68;35.83;;;;;;;0.96;100.00;101233.78;4982107;28;20128;-72
2021/12/11 08:16:49;;;;;;;75.15;35.10;;;;;;;1.17;100.00;101238.63;4996841;28;20431;-72
2021/12/11 08:19:19;;;;;;;84.15;38.03;;;;;;;1.05;100.00;101237.78;4975034;28;20516;-72
2021/12/11 08:21:46;;;;;;;82.13;38.33;;;;;;;1.19;100.00;101243.75;4993149;28;20069;-72
2021/12/11 08:24:12;;;;;;;85.65;37.00;;;;;;;1.38;100.00;101241.81;4972820;28;20056;-72
2021/12/11 08:26:40;;;;;;;74.68;35.55;;;;;;;1.36;100.00;101245.53;4993032;28;20464;-72
2021/12/11 08:29:08;;;;;;;89.18;39.67;;;;;;;1.43;100.00;101250.81;4974373;28;20057;-72
2021/12/11 08:31:33;;;;;;;73.97;35.33;;;;;;;1.42;100.00;101264.47;4983369;28;20050;-72
2021/12/11 08:34:00;;;;;;;77.50;36.08;;;;;;;1.55;100.00;101264.25;4986779;28;20052;-72
2021/12/11 08:36:25;;;;;;;79.07;38.22;;;;;;;1.47;100.00;101272.66;4976878;28;20108;-72
2021/12/11 08:38:52;;;;;;;93.88;37.67;;;;;;;1.58;100.00;101274.53;4993881;28;20751;-72
2021/12/11 08:41:22;;;;;;;94.18;39.95;;;;;;;1.50;100.00;101272.19;4992833;28;20049;-72
2021/12/11 08:43:56;;;;;;;79.22;36.33;;;;;;;1.71;100.00;101262.72;4992447;28;20443;-72
2021/12/11 08:46:28;;;;;;;84.45;38.78;;;;;;;1.79;100.00;101279.31;4992742;28;20234;-72
2021/12/11 08:48:58;;;;;;;83.18;38.10;;;;;;;1.78;100.00;101280.38;4992935;28;20049;-72
2021/12/11 08:51:48;;;;;;;89.63;38.88;;;;;;;1.85;100.00;101284.81;4993442;28;20049;-72
2021/12/11 08:54:14;;;;;;;80.38;37.50;;;;;;;1.94;100.00;101286.09;4987860;28;20116;-72
2021/12/11 08:56:41;;;;;;;86.00;38.47;;;;;;;1.92;100.00;101290.88;4992326;28;20034;-72
2021/12/11 08:59:17;;;;;;;86.20;37.78;;;;;;;1.94;100.00;101292.28;4971991;28;20054;-72
2021/12/11 09:01:48;;;;;;;78.57;37.63;;;;;;;2.02;100.00;101293.81;4988698;28;20153;-72
2021/12/11 09:04:20;;;;;;;93.65;40.92;;;;;;;2.12;100.00;101298.59;4996974;28;20150;-71
2021/12/11 09:06:54;;;;;;;85.20;38.15;;;;;;;2.29;100.00;101302.19;4990170;28;20795;-71
2021/12/11 09:09:55;;;;;;;74.45;35.85;;;;;;;2.46;100.00;101302.28;4995018;28;20580;-72
2021/12/11 09:12:29;;;;;;;78.15;35.13;;;;;;;2.61;100.00;101307.94;4993244;28;20034;-71
2021/12/11 09:15:05;;;;;;;;;;;;;;;2.49;100.00;101321.44;4975515;28;20447;-71
2021/12/11 09:17:33;;;;;;;83.65;36.38;;;;;;;2.64;100.00;101320.94;4968367;28;20272;-72
2021/12/11 09:20:01;;;;;;;71.10;34.03;;;;;;;2.78;100.00;101321.47;4991007;28;20091;-72
2021/12/11 09:22:35;;;;;;;79.57;37.20;;;;;;;2.49;100.00;101328.72;4975385;28;20440;-72
2021/12/11 09:25:19;;;;;;;86.72;38.33;;;;;;;2.44;100.00;101344.75;4988781;28;20038;-72
2021/12/11 09:27:51;;;;;;;86.75;38.22;;;;;;;2.48;100.00;101338.66;4992818;28;20468;-72
2021/12/11 09:30:31;;;;;;;100.45;39.05;;;;;;;2.45;100.00;101336.44;4991379;28;20041;-72
2021/12/11 09:33:12;;;;;;;88.32;36.28;;;;;;;2.36;100.00;101345.13;4992579;28;20042;-72
2021/12/11 09:35:43;;;;;;;90.80;36.83;;;;;;;2.18;100.00;101348.75;4981157;28;20128;-73
2021/12/11 09:38:17;;;;;;;87.53;36.30;;;;;;;2.34;100.00;101353.44;5001622;28;20050;-71
2021/12/11 09:40:52;;;;;;;98.38;40.05;;;;;;;2.15;100.00;101360.84;4995783;28;20046;-71
2021/12/11 09:44:02;;;;;;;112.25;42.58;;;;;;;2.43;100.00;101370.03;4995859;28;20116;-71
2021/12/11 09:46:34;;;;;;;101.38;40.80;;;;;;;2.59;100.00;101372.00;4939702;28;20445;-71
2021/12/11 09:49:03;;;;;;;108.50;40.33;;;;;;;2.66;100.00;101378.06;4989743;28;20910;-71
2021/12/11 09:51:34;;;;;;;109.45;41.50;;;;;;;2.39;100.00;101376.97;4999383;28;20457;-72
2021/12/11 09:54:03;;;;;;;106.65;42.55;;;;;;;2.33;100.00;101377.88;5005898;28;20033;-72
2021/12/11 09:56:37;;;;;;;122.00;46.35;;;;;;;2.35;100.00;101391.94;5008259;28;20069;-72
2021/12/11 09:59:07;;;;;;;116.90;42.90;;;;;;;2.03;100.00;101390.41;4980343;28;20142;-72
2021/12/11 10:01:39;;;;;;;118.55;43.47;;;;;;;1.70;100.00;101404.41;4991332;28;20129;-72
2021/12/11 10:04:40;;;;;;;100.30;39.55;;;;;;;1.49;100.00;101399.56;4995643;28;20530;-72
2021/12/11 10:07:26;;;;;;;96.63;39.70;;;;;;;1.24;100.00;101413.94;4994216;28;20117;-72
2021/12/11 10:09:55;;;;;;;105.28;43.45;;;;;;;1.73;100.00;101419.25;5006294;28;20145;-72
2021/12/11 10:12:35;;;;;;;108.40;43.35;;;;;;;1.48;100.00;101419.41;4995398;28;20394;-73
2021/12/11 10:15:21;;;;;;;103.03;43.58;;;;;;;1.51;100.00;101427.00;5013528;28;20599;-73
2021/12/11 10:17:51;;;;;;;129.15;50.25;;;;;;;1.64;100.00;101428.72;5003309;28;20038;-72
2021/12/11 10:20:36;;;;;;;116.18;47.40;;;;;;;1.89;100.00;101436.56;5014234;28;20041;-72
2021/12/11 10:23:05;;;;;;;118.45;48.15;;;;;;;1.87;100.00;101438.69;4992623;28;20133;-73
2021/12/11 10:25:34;;;;;;;129.32;48.45;;;;;;;1.88;100.00;101445.72;4993498;28;20452;-73
2021/12/11 10:28:02;;;;;;;128.88;49.58;;;;;;;1.99;100.00;101442.22;4993415;28;20573;-73
2021/12/11 10:30:30;;;;;;;137.07;52.53;;;;;;;1.73;100.00;101449.66;4999626;28;20080;-73
2021/12/11 10:32:55;;;;;;;144.88;53.17;;;;;;;1.84;100.00;101452.59;4996053;28;20038;-73
2021/12/11 10:35:29;;;;;;;146.70;52.22;;;;;;;1.83;100.00;101453.63;4991286;28;20504;-73
2021/12/11 10:37:55;;;;;;;165.07;56.60;;;;;;;1.79;100.00;101464.84;4991377;28;20290;-73
2021/12/11 10:40:27;;;;;;;144.73;51.55;;;;;;;1.79;100.00;101462.16;4979717;28;20037;-73
2021/12/11 10:43:01;;;;;;;143.57;51.65;;;;;;;1.94;100.00;101461.72;4993475;28;20065;-72
2021/12/11 10:45:28;;;;;;;161.68;56.50;;;;;;;2.05;100.00;101462.81;4975654;28;20048;-72
2021/12/11 10:47:59;;;;;;;148.70;51.92;;;;;;;1.98;100.00;101462.13;4992224;28;20203;-73
2021/12/11 10:50:33;;;;;;;165.80;54.05;;;;;;;2.04;100.00;101466.56;4991984;28;20053;-73
2021/12/11 10:53:00;;;;;;;167.35;54.83;;;;;;;2.17;100.00;101460.94;4974386;28;20310;-72
2021/12/11 10:55:29;;;;;;;139.60;53.60;;;;;;;2.41;100.00;101461.78;4975745;28;20442;-73
2021/12/11 10:57:57;;;;;;;158.68;52.65;;;;;;;2.16;100.00;101471.97;4992151;28;20422;-72
2021/12/11 11:00:31;;;;;;;168.50;57.45;;;;;;;2.21;100.00;101470.22;4994599;28;20156;-73
2021/12/11 11:02:57;;;;;;;163.93;54.17;;;;;;;2.14;100.00;101482.94;4974099;28;20053;-72
2021/12/11 11:05:25;;;;;;;169.57;55.63;;;;;;;2.15;100.00;101481.91;4978027;28;20473;-73
2021/12/11 11:07:51;;;;;;;172.00;57.88;;;;;;;2.30;100.00;101486.84;4994815;28;20081;-73
2021/12/11 11:10:25;;;;;;;168.95;56.30;;;;;;;2.50;100.00;101483.78;4992261;28;20049;-73
2021/12/11 11:12:53;;;;;;;160.05;54.58;;;;;;;2.30;100.00;101486.84;4990285;28;20049;-73
2021/12/11 11:15:21;;;;;;;161.52;54.80;;;;;;;2.48;100.00;101497.50;4992164;28;20038;-73
2021/12/11 11:17:47;;;;;;;153.95;54.47;;;;;;;2.63;100.00;101506.97;4995233;28;20092;-73
2021/12/11 11:20:15;;;;;;;162.02;55.13;;;;;;;2.54;100.00;101514.59;4977817;28;20486;-72
2021/12/11 11:22:44;;;;;;;151.18;53.20;;;;;;;2.51;100.00;101515.06;4977534;28;20462;-73
2021/12/11 11:25:13;;;;;;;162.07;58.05;;;;;;;2.25;100.00;101522.50;4995938;28;20081;-72
2021/12/11 11:27:43;;;;;;;154.05;55.50;;;;;;;2.27;100.00;101524.97;5000680;28;20053;-71
2021/12/11 11:30:16;;;;;;;173.18;56.78;;;;;;;2.43;100.00;101524.28;4986227;28;20049;-72
2021/12/11 11:32:42;;;;;;;149.85;53.25;;;;;;;2.71;100.00;101536.25;5005350;28;20041;-72
2021/12/11 11:35:12;;;;;;;160.00;56.45;;;;;;;2.74;100.00;101540.34;4991159;28;20049;-72